Gainesville, Georgia
Current Conditions -  °F | °C
As of 2:53 PM on Wednesday 26 Nov 2014 (Local Time) from KGVL Reporting Station
Clear Clear  
Wind Chill: 54°   Ceiling: Unl
Heat Index: 54°   Visibility: 10mi
Dew Point: 18°   Wind: 15mph
Humidity: 24%   Direction: 250°WSW
Pressure: 30.03"   Gusts: 24mph
Location:  34.3°N, 83.82°W
Report Text: KGVL 261953Z AUTO 25013G21KT 10SM CLR 12/M08 A3003 RMK AO2 SLP167 T01221078
Loading
Personal Weather Stations






























Interactive Weather Map New forecast layout! Learn more

10-Day Weather Forecast

Advertisements
Track Severe Weather on mobile